Dauntless Aviation
Airports North America Canada
CKH9

Kelowna General Hospital Helipad

Kelowna, CANADA

Airport Info
Suggest Updated Information for this Airport

Location

Latitude / Longitude: 49°52'27"N / 119°29'32"W
  49°52.458'N / 119°29.544'W
  49.8743 / -119.4924
Satellite photo at:
Airport distance calculator
From:
Weather Reports

METAR

CYLW
6.7nm NE
CYLW 132000Z AUTO 20004KT 110V240 9SM FEW210 04/M01 A3045 RMK SLP330
CWUS
19.5nm S
CWUS 132000Z AUTO 17005KT 06/M03 RMK AO1 SLP322 T00581026 58025
CWJV
23.8nm N
CWJV 132000Z AUTO 11004KT 02/M01 RMK AO1 SLP327 T00211010 58019
CYYF
24.7nm S
CYYF 132000Z 15014G22KT 15SM BKN210 BKN260 06/M02 A3046 RMK CC5CI2 SLP327

TAF

CYLW
6.7nm NE
TAF CYLW 131838Z 1319/1407 VRB03KT P6SM BKN220 FM140300 15006KT P6SM BKN120 RMK FCST BASED ON AUTO OBS. NXT FCST BY 140100Z
CYYF
24.7nm S
TAF CYYF 131838Z 1319/1407 16015G25KT P6SM FEW040 BKN210 RMK NXT FCST BY 140100Z
Safelog

 

Dauntless Aviation

© 2007-2018 Dauntless Aviation, all rights reserved
Information provided via PilotNav comes from a variety of official and unofficial data sources. As errors are possible, do not use PilotNav for primary flight planning purposes. Verify any information that you receive via PilotNav with current and canonical charts and other official documents. The material in this database is subject to database copyrights held by Dauntless Aviation and may not be copied without the express permission of Dauntless Aviation - licenses for use of part of all of this data are available for purchase; enquire via the Dauntless Aviation helpdesk. A number of mechanisms and markers exist in the database to protect against and identify infringement / copyright. Automated queries against this website are stictly prohibited, and all activity is logged and analyzed.